createdAt,value
2019-02-17T00:00:33.214Z,13.90
2019-02-17T00:03:02.584Z,13.37
2019-02-17T00:05:31.910Z,14.27
2019-02-17T00:08:02.229Z,13.83
2019-02-17T00:10:31.563Z,14.97
2019-02-17T00:13:01.021Z,14.70
2019-02-17T00:15:30.437Z,15.20
2019-02-17T00:18:00.411Z,14.73
2019-02-17T00:20:30.459Z,14.37
2019-02-17T00:23:00.756Z,14.37
2019-02-17T00:25:30.064Z,13.70
2019-02-17T00:28:00.237Z,14.93
2019-02-17T00:30:29.648Z,15.07
2019-02-17T00:32:58.980Z,15.30
2019-02-17T00:35:28.348Z,15.57
2019-02-17T00:37:57.900Z,14.93
2019-02-17T00:40:27.255Z,15.23
2019-02-17T00:42:56.608Z,15.20
2019-02-17T00:45:25.927Z,15.07
2019-02-17T00:47:56.283Z,15.33
2019-02-17T00:50:26.478Z,15.63
2019-02-17T00:52:57.339Z,14.37
2019-02-17T00:55:26.734Z,15.37
2019-02-17T00:57:56.987Z,15.07
2019-02-17T01:00:26.467Z,15.30
2019-02-17T01:02:55.785Z,14.60
2019-02-17T01:05:25.123Z,15.23
2019-02-17T01:07:54.524Z,14.57
2019-02-17T01:10:23.844Z,14.80
2019-02-17T01:12:53.201Z,13.77
2019-02-17T01:15:22.604Z,13.60
2019-02-17T01:17:51.924Z,14.13
2019-02-17T01:20:21.275Z,15.07
2019-02-17T01:22:50.720Z,14.83
2019-02-17T01:25:21.050Z,14.30
2019-02-17T01:27:50.564Z,14.20
2019-02-17T01:30:19.913Z,14.47
2019-02-17T01:32:49.267Z,14.30
2019-02-17T01:35:18.619Z,14.03
2019-02-17T01:37:48.001Z,14.00
2019-02-17T01:40:17.399Z,14.17
2019-02-17T01:42:46.764Z,14.60
2019-02-17T01:45:16.428Z,13.97
2019-02-17T01:47:46.625Z,13.67
2019-02-17T01:50:16.900Z,14.60
2019-02-17T01:52:46.272Z,14.00
2019-02-17T01:55:15.608Z,14.23
2019-02-17T01:57:44.933Z,13.87
2019-02-17T02:00:14.654Z,13.53
2019-02-17T02:02:45.015Z,15.60
2019-02-17T02:05:14.429Z,15.60
2019-02-17T02:07:43.749Z,14.90
2019-02-17T02:10:13.097Z,15.10
2019-02-17T02:12:42.473Z,15.50
2019-02-17T02:15:11.966Z,16.20
2019-02-17T02:17:41.329Z,15.40
2019-02-17T02:20:11.916Z,15.73
2019-02-17T02:22:41.272Z,17.00
2019-02-17T02:25:10.584Z,16.30
2019-02-17T02:27:39.955Z,17.10
2019-02-17T02:30:11.661Z,14.87
2019-02-17T02:32:41.062Z,16.33
2019-02-17T02:35:10.488Z,15.03
2019-02-17T02:37:39.896Z,15.33
2019-02-17T02:40:09.491Z,15.43
2019-02-17T02:42:38.815Z,16.47
2019-02-17T02:45:09.048Z,15.57
2019-02-17T02:47:38.715Z,16.33
2019-02-17T02:50:09.537Z,14.57
2019-02-17T02:52:38.998Z,14.13
2019-02-17T02:55:08.569Z,14.53
2019-02-17T02:57:37.940Z,14.33
2019-02-17T03:00:09.487Z,14.27
2019-02-17T03:02:38.915Z,14.10
2019-02-17T03:05:09.305Z,15.23
2019-02-17T03:07:38.662Z,14.93
2019-02-17T03:10:09.402Z,14.10
2019-02-17T03:12:38.741Z,15.53
2019-02-17T03:15:08.149Z,13.17
2019-02-17T03:17:37.483Z,13.77
2019-02-17T03:20:07.454Z,12.97
2019-02-17T03:22:36.796Z,12.13
2019-02-17T03:25:06.151Z,12.77
2019-02-17T03:27:38.016Z,12.83
2019-02-17T03:30:08.631Z,12.73
2019-02-17T03:32:38.055Z,13.67
2019-02-17T03:35:07.559Z,12.37
2019-02-17T03:37:36.864Z,13.43
2019-02-17T03:40:07.172Z,13.07
2019-02-17T03:42:36.456Z,12.33
2019-02-17T03:45:06.116Z,13.73
2019-02-17T03:47:35.506Z,13.60
2019-02-17T03:50:05.345Z,13.30
2019-02-17T03:52:34.691Z,12.57
2019-02-17T03:55:04.015Z,13.03
2019-02-17T03:57:33.385Z,12.23
2019-02-17T04:00:02.745Z,12.43
2019-02-17T04:02:32.062Z,13.47
2019-02-17T04:05:01.487Z,13.53
2019-02-17T04:07:30.787Z,13.90
2019-02-17T04:10:00.306Z,12.73
2019-02-17T04:12:29.468Z,12.90
2019-02-17T04:14:58.787Z,13.00
2019-02-17T04:17:28.620Z,13.97
2019-02-17T04:19:58.031Z,13.20
2019-02-17T04:22:27.383Z,13.60
2019-02-17T04:24:56.715Z,13.37
2019-02-17T04:27:26.064Z,13.97
2019-02-17T04:29:55.407Z,13.67
2019-02-17T04:32:24.791Z,13.40
2019-02-17T04:34:54.235Z,14.00
2019-02-17T04:37:24.489Z,13.33
2019-02-17T04:39:53.844Z,12.67
2019-02-17T04:42:23.136Z,13.03
2019-02-17T04:44:53.491Z,13.53
2019-02-17T04:47:22.825Z,13.60
2019-02-17T04:49:52.148Z,13.73
2019-02-17T04:52:21.450Z,12.87
2019-02-17T04:54:50.834Z,12.50
2019-02-17T04:57:20.686Z,13.07
2019-02-17T04:59:50.812Z,12.63
2019-02-17T05:02:20.184Z,13.40
2019-02-17T05:04:49.562Z,13.90
2019-02-17T05:07:18.896Z,12.93
2019-02-17T05:09:48.808Z,13.47
2019-02-17T05:12:18.242Z,14.10
2019-02-17T05:14:47.564Z,14.27
2019-02-17T05:17:16.849Z,14.70
2019-02-17T05:19:46.760Z,12.50
2019-02-17T05:22:16.051Z,13.33
2019-02-17T05:24:46.073Z,13.23
2019-02-17T05:27:15.395Z,12.53
2019-02-17T05:29:44.724Z,13.03
2019-02-17T05:32:14.056Z,13.30
2019-02-17T05:34:43.429Z,12.77
2019-02-17T05:37:12.780Z,13.70
2019-02-17T05:39:42.121Z,13.13
2019-02-17T05:42:11.636Z,12.37
2019-02-17T05:44:40.950Z,12.30
2019-02-17T05:47:10.250Z,12.10
2019-02-17T05:49:40.411Z,12.17
2019-02-17T05:52:09.839Z,12.27
2019-02-17T05:54:39.365Z,13.67
2019-02-17T05:57:08.687Z,12.20
2019-02-17T05:59:38.068Z,12.23
2019-02-17T06:02:08.015Z,11.33
2019-02-17T06:04:37.418Z,12.53
2019-02-17T06:07:06.699Z,12.10
2019-02-17T06:09:36.346Z,11.47
2019-02-17T06:12:05.724Z,11.90
2019-02-17T06:14:35.033Z,11.53
2019-02-17T06:17:04.961Z,11.17
2019-02-17T06:19:34.269Z,11.90
2019-02-17T06:22:03.608Z,11.70
2019-02-17T06:24:32.913Z,12.50
2019-02-17T06:27:02.255Z,11.90
2019-02-17T06:29:31.574Z,11.77
2019-02-17T06:32:02.412Z,12.23
2019-02-17T06:34:31.759Z,12.73
2019-02-17T06:37:01.160Z,12.50
2019-02-17T06:39:30.523Z,12.50
2019-02-17T06:41:59.916Z,12.87
2019-02-17T06:44:29.231Z,12.63
2019-02-17T06:47:01.149Z,11.10
2019-02-17T06:49:30.488Z,11.70
2019-02-17T06:51:59.959Z,11.77
2019-02-17T06:54:29.256Z,12.50
2019-02-17T06:57:06.163Z,12.30
2019-02-17T06:59:35.603Z,13.00
2019-02-17T07:02:04.935Z,12.27
2019-02-17T07:04:42.417Z,12.80
2019-02-17T07:07:12.789Z,13.50
2019-02-17T07:09:42.123Z,14.37
2019-02-17T07:12:11.453Z,14.73
2019-02-17T07:14:40.766Z,15.03
2019-02-17T07:17:11.005Z,15.43
2019-02-17T07:19:40.321Z,15.00
2019-02-17T07:22:09.699Z,15.60
2019-02-17T07:24:40.065Z,15.93
2019-02-17T07:27:09.528Z,17.17
2019-02-17T07:29:38.904Z,17.00
2019-02-17T07:32:08.220Z,16.43
2019-02-17T07:34:37.644Z,19.00
2019-02-17T07:37:06.969Z,19.87
2019-02-17T07:39:36.248Z,19.23
2019-02-17T07:42:06.348Z,18.40
2019-02-17T07:44:35.674Z,18.70
2019-02-17T07:47:04.973Z,19.43
2019-02-17T07:49:34.337Z,20.53
2019-02-17T07:52:03.639Z,21.37
2019-02-17T07:54:33.617Z,21.57
2019-02-17T07:57:03.037Z,20.97
2019-02-17T07:59:32.360Z,22.20
2019-02-17T08:02:02.747Z,21.47
2019-02-17T08:04:32.196Z,22.57
2019-02-17T08:07:01.563Z,21.37
2019-02-17T08:09:30.855Z,20.80
2019-02-17T08:12:00.802Z,20.90
2019-02-17T08:14:30.125Z,20.63
2019-02-17T08:16:59.412Z,20.77
2019-02-17T08:19:28.747Z,20.77
2019-02-17T08:21:58.040Z,19.77
2019-02-17T08:24:27.380Z,19.57
2019-02-17T08:26:56.764Z,21.67
2019-02-17T08:29:26.093Z,21.20
2019-02-17T08:31:56.378Z,21.23
2019-02-17T08:34:25.658Z,21.03
2019-02-17T08:36:55.057Z,20.23
2019-02-17T08:39:24.406Z,20.43
2019-02-17T08:41:54.010Z,21.93
2019-02-17T08:44:23.387Z,21.73
2019-02-17T08:46:52.796Z,22.33
2019-02-17T08:49:22.225Z,23.60
2019-02-17T08:51:51.608Z,21.83
2019-02-17T08:54:21.019Z,23.67
2019-02-17T08:56:50.632Z,23.47
2019-02-17T08:59:19.996Z,22.90
2019-02-17T09:01:49.749Z,23.10
2019-02-17T09:04:19.075Z,22.93
2019-02-17T09:06:48.480Z,23.87
2019-02-17T09:09:17.790Z,23.73
2019-02-17T09:11:47.672Z,23.77
2019-02-17T09:14:17.063Z,24.50
2019-02-17T09:16:46.399Z,25.57
2019-02-17T09:19:15.729Z,24.73
2019-02-17T09:21:45.037Z,23.00
2019-02-17T09:24:14.393Z,23.70
2019-02-17T09:26:43.747Z,22.70
2019-02-17T09:29:13.135Z,23.20
2019-02-17T09:31:42.470Z,24.63
2019-02-17T09:34:12.383Z,24.60
2019-02-17T09:36:41.681Z,23.80
2019-02-17T09:39:11.190Z,23.57
2019-02-17T09:41:40.509Z,25.87
2019-02-17T09:44:09.821Z,24.37
2019-02-17T09:46:39.232Z,23.57
2019-02-17T09:49:08.585Z,26.30
2019-02-17T09:51:37.984Z,24.83
2019-02-17T09:54:07.355Z,24.43
2019-02-17T09:56:36.712Z,24.60
2019-02-17T09:59:06.233Z,24.37
2019-02-17T10:01:35.667Z,24.90
2019-02-17T10:04:04.996Z,23.53
2019-02-17T10:06:34.403Z,23.30
2019-02-17T10:09:05.181Z,23.80
2019-02-17T10:11:35.072Z,23.97
2019-02-17T10:14:05.375Z,22.57
2019-02-17T10:16:34.765Z,25.47
2019-02-17T10:19:04.238Z,25.00
2019-02-17T10:21:33.686Z,26.40
2019-02-17T10:24:03.001Z,25.40
2019-02-17T10:26:32.323Z,24.00
2019-02-17T10:29:01.659Z,25.17
2019-02-17T10:31:31.048Z,25.67
2019-02-17T10:34:00.398Z,25.67
2019-02-17T10:36:29.727Z,26.07
2019-02-17T10:38:59.395Z,27.03
2019-02-17T10:41:28.782Z,27.17
2019-02-17T10:43:59.158Z,25.70
2019-02-17T10:46:28.489Z,26.80
2019-02-17T10:48:57.897Z,24.93
2019-02-17T10:51:27.278Z,25.67
2019-02-17T10:53:56.653Z,26.33
2019-02-17T10:56:25.966Z,25.07
2019-02-17T10:58:55.369Z,25.03
2019-02-17T11:01:24.737Z,23.40
2019-02-17T11:04:03.731Z,23.77
2019-02-17T11:06:33.580Z,21.10
2019-02-17T11:09:02.945Z,22.67
2019-02-17T11:11:32.851Z,22.30
2019-02-17T11:14:02.262Z,22.53
2019-02-17T11:16:31.565Z,19.90
2019-02-17T11:19:01.072Z,21.13
2019-02-17T11:21:30.453Z,20.97
2019-02-17T11:24:00.667Z,21.23
2019-02-17T11:26:30.003Z,20.60
2019-02-17T11:28:59.275Z,20.80
2019-02-17T11:31:28.575Z,21.50
2019-02-17T11:33:57.971Z,20.43
2019-02-17T11:36:27.411Z,20.53
2019-02-17T11:38:56.731Z,21.63
2019-02-17T11:41:26.055Z,21.33
2019-02-17T11:43:55.371Z,21.77
2019-02-17T11:46:25.302Z,22.00
2019-02-17T11:48:54.623Z,20.60
2019-02-17T11:51:23.964Z,21.80
2019-02-17T11:53:53.297Z,21.67
2019-02-17T11:56:22.693Z,21.47
2019-02-17T11:58:52.156Z,20.40
2019-02-17T12:01:21.580Z,20.73
2019-02-17T12:03:51.582Z,20.80
2019-02-17T12:06:21.110Z,21.30
2019-02-17T12:08:50.613Z,21.43
2019-02-17T12:11:19.951Z,20.07
2019-02-17T12:13:49.345Z,19.00
2019-02-17T12:16:19.558Z,20.50
2019-02-17T12:18:48.916Z,20.37
2019-02-17T12:21:57.436Z,20.93
2019-02-17T12:24:38.976Z,20.03
2019-02-17T12:27:13.521Z,20.93
2019-02-17T12:29:48.934Z,21.30
2019-02-17T12:32:18.355Z,22.03
2019-02-17T12:34:47.693Z,20.93
2019-02-17T12:37:17.094Z,20.80
2019-02-17T12:39:46.454Z,21.90
2019-02-17T12:42:15.808Z,21.73
2019-02-17T12:44:45.216Z,20.73
2019-02-17T12:47:14.741Z,21.33
2019-02-17T12:49:44.096Z,19.57
2019-02-17T12:52:13.479Z,20.30
2019-02-17T12:54:42.820Z,20.97
2019-02-17T12:57:12.712Z,21.17
2019-02-17T12:59:42.051Z,20.03
2019-02-17T13:02:11.440Z,21.37
2019-02-17T13:04:40.871Z,23.23
2019-02-17T13:07:11.275Z,21.03
2019-02-17T13:09:41.310Z,20.43
2019-02-17T13:12:10.844Z,21.53
2019-02-17T13:14:40.201Z,19.87
2019-02-17T13:17:09.507Z,20.53
2019-02-17T13:19:41.222Z,20.87
2019-02-17T13:22:08.331Z,19.70
2019-02-17T13:24:37.627Z,20.97
2019-02-17T13:27:06.928Z,20.03
2019-02-17T13:29:36.283Z,20.20
2019-02-17T13:32:05.617Z,19.60
2019-02-17T13:34:35.711Z,19.33
2019-02-17T13:37:05.041Z,17.70
2019-02-17T13:39:34.381Z,18.53
2019-02-17T13:42:03.747Z,17.23
2019-02-17T13:44:33.920Z,17.07
2019-02-17T13:47:03.290Z,17.23
2019-02-17T13:49:32.629Z,16.10
2019-02-17T13:52:01.996Z,16.47
2019-02-17T13:54:31.400Z,17.50
2019-02-17T13:57:00.700Z,16.13
2019-02-17T13:59:30.063Z,15.83
2019-02-17T14:02:00.321Z,15.07
2019-02-17T14:04:30.557Z,14.63
2019-02-17T14:07:00.912Z,14.83
2019-02-17T14:09:30.645Z,15.63
2019-02-17T14:12:00.070Z,14.57
2019-02-17T14:14:29.474Z,14.30
2019-02-17T14:16:59.004Z,14.90
2019-02-17T14:19:28.418Z,14.17
2019-02-17T14:21:57.816Z,14.77
2019-02-17T14:24:27.726Z,14.37
2019-02-17T14:26:57.056Z,14.87
2019-02-17T14:29:26.464Z,15.30
2019-02-17T14:31:55.874Z,15.57
2019-02-17T14:34:25.363Z,14.87
2019-02-17T14:36:54.849Z,16.17
2019-02-17T14:39:24.185Z,14.60
2019-02-17T14:41:53.546Z,15.73
2019-02-17T14:44:23.013Z,15.63
2019-02-17T14:46:52.436Z,15.47
2019-02-17T14:49:21.954Z,15.37
2019-02-17T14:51:51.345Z,14.90
2019-02-17T14:54:20.821Z,14.60
2019-02-17T14:56:50.233Z,13.72
2019-02-17T14:59:19.741Z,14.70
2019-02-17T15:01:49.195Z,14.03
2019-02-17T15:04:18.552Z,14.05
2019-02-17T15:06:48.014Z,13.13
2019-02-17T15:09:17.413Z,14.38
2019-02-17T15:11:46.914Z,13.62
2019-02-17T15:14:16.248Z,13.45
2019-02-17T15:16:45.605Z,13.15
2019-02-17T15:19:15.137Z,13.72
2019-02-17T15:21:44.462Z,12.68
2019-02-17T15:24:13.805Z,13.22
2019-02-17T15:26:43.361Z,13.30
2019-02-17T15:29:12.736Z,13.15
2019-02-17T15:31:42.088Z,13.88
2019-02-17T15:34:18.408Z,14.93
2019-02-17T15:36:40.801Z,15.72
2019-02-17T15:39:10.249Z,15.67
2019-02-17T15:41:39.625Z,15.30
2019-02-17T15:44:09.181Z,15.83
2019-02-17T15:46:38.585Z,14.63
2019-02-17T15:49:08.724Z,15.03
2019-02-17T15:51:38.193Z,14.70
2019-02-17T15:54:07.666Z,17.20
2019-02-17T15:56:37.038Z,14.70
2019-02-17T15:59:06.381Z,18.57
2019-02-17T16:01:35.775Z,17.80
2019-02-17T16:04:05.182Z,20.33
2019-02-17T16:06:34.563Z,20.50
2019-02-17T16:09:05.688Z,22.33
2019-02-17T16:11:35.031Z,19.13
2019-02-17T16:14:04.476Z,20.00
2019-02-17T16:16:34.011Z,18.80
2019-02-17T16:19:04.024Z,19.27
2019-02-17T16:21:33.367Z,19.73
2019-02-17T16:24:02.698Z,20.43
2019-02-17T16:26:32.600Z,20.13
2019-02-17T16:29:02.400Z,22.03
2019-02-17T16:31:31.947Z,22.77
2019-02-17T16:34:01.256Z,22.97
2019-02-17T16:36:30.540Z,24.33
2019-02-17T16:38:59.883Z,21.23
2019-02-17T16:41:29.203Z,22.50
2019-02-17T16:43:58.699Z,24.30
2019-02-17T16:46:28.092Z,21.63
2019-02-17T16:48:57.423Z,23.20
2019-02-17T16:51:26.793Z,22.37
2019-02-17T16:53:56.143Z,23.23
2019-02-17T16:56:25.540Z,22.90
2019-02-17T16:58:55.543Z,22.97
2019-02-17T17:01:25.759Z,21.60
2019-02-17T17:03:56.695Z,21.37
2019-02-17T17:06:26.092Z,21.97
2019-02-17T17:08:55.456Z,23.27
2019-02-17T17:11:24.784Z,23.30
2019-02-17T17:13:54.206Z,22.37
2019-02-17T17:16:24.240Z,21.60
2019-02-17T17:18:54.277Z,21.57
2019-02-17T17:21:23.552Z,20.67
2019-02-17T17:23:53.091Z,20.37
2019-02-17T17:26:22.517Z,21.07
2019-02-17T17:28:51.831Z,21.57
2019-02-17T17:31:21.196Z,20.83
2019-02-17T17:33:50.625Z,20.50
2019-02-17T17:36:20.020Z,20.23
2019-02-17T17:38:49.365Z,20.47
2019-02-17T17:41:18.717Z,20.03
2019-02-17T17:43:48.267Z,19.80
2019-02-17T17:46:17.620Z,18.23
2019-02-17T17:48:46.936Z,16.83
2019-02-17T17:51:16.929Z,15.20
2019-02-17T17:53:46.264Z,10.43
2019-02-17T17:56:15.706Z,12.40
2019-02-17T17:58:45.580Z,10.53
2019-02-17T18:01:14.991Z,9.77
2019-02-17T18:03:44.311Z,10.00
2019-02-17T18:06:14.281Z,10.87
2019-02-17T18:08:43.664Z,10.27
2019-02-17T18:11:14.027Z,10.37
2019-02-17T18:13:43.995Z,9.20
2019-02-17T18:16:13.471Z,9.60
2019-02-17T18:18:42.875Z,9.27
2019-02-17T18:21:12.489Z,9.10
2019-02-17T18:23:42.472Z,9.07
2019-02-17T18:26:11.941Z,9.03
2019-02-17T18:28:41.284Z,8.20
2019-02-17T18:31:10.692Z,8.63
2019-02-17T18:33:40.143Z,7.87
2019-02-17T18:36:09.444Z,8.50
2019-02-17T18:38:38.826Z,8.90
2019-02-17T18:41:08.147Z,9.00
2019-02-17T18:43:37.428Z,8.30
2019-02-17T18:46:06.887Z,8.03
2019-02-17T18:48:36.692Z,8.20
2019-02-17T18:51:06.596Z,8.98
2019-02-17T18:53:35.944Z,8.70
2019-02-17T18:56:05.679Z,7.97
2019-02-17T18:58:35.956Z,8.80
2019-02-17T19:01:05.390Z,8.77
2019-02-17T19:03:35.331Z,8.83
2019-02-17T19:06:04.763Z,8.80
2019-02-17T19:08:34.103Z,9.47
2019-02-17T19:11:04.532Z,9.70
2019-02-17T19:13:33.956Z,9.47
2019-02-17T19:16:03.335Z,9.47
2019-02-17T19:18:33.339Z,9.73
2019-02-17T19:21:02.627Z,10.20
2019-02-17T19:23:32.272Z,10.17
2019-02-17T19:26:01.684Z,9.33
2019-02-17T19:28:31.067Z,9.70
2019-02-17T19:31:00.402Z,13.40
2019-02-17T19:33:29.711Z,8.80
2019-02-17T19:36:00.267Z,9.00
2019-02-17T19:38:29.632Z,8.17
2019-02-17T19:41:01.579Z,9.27
2019-02-17T19:43:29.776Z,8.77
2019-02-17T19:45:59.184Z,8.33
2019-02-17T19:48:29.451Z,9.27
2019-02-17T19:50:58.835Z,9.23
2019-02-17T19:53:28.192Z,9.03
2019-02-17T19:55:57.979Z,8.57
2019-02-17T19:58:27.384Z,8.63
2019-02-17T20:00:56.715Z,8.80
2019-02-17T20:03:30.518Z,8.67
2019-02-17T20:06:01.629Z,9.57
2019-02-17T20:08:31.028Z,9.80
2019-02-17T20:11:01.097Z,9.37
2019-02-17T20:13:30.498Z,9.93
2019-02-17T20:15:59.895Z,9.57
2019-02-17T20:18:29.299Z,10.13
2019-02-17T20:20:58.562Z,9.90
2019-02-17T20:23:27.940Z,8.97
2019-02-17T20:25:58.062Z,9.43
2019-02-17T20:28:40.659Z,9.30
2019-02-17T20:30:56.130Z,9.43
2019-02-17T20:33:25.406Z,8.47
2019-02-17T20:36:02.461Z,7.87
2019-02-17T20:38:24.867Z,7.60
2019-02-17T20:40:54.125Z,8.03
2019-02-17T20:43:23.642Z,8.23
2019-02-17T20:45:53.772Z,8.23
2019-02-17T20:48:23.018Z,8.97
2019-02-17T20:50:52.549Z,8.63
2019-02-17T20:53:21.875Z,9.30
2019-02-17T20:55:51.311Z,9.37
2019-02-17T20:58:20.717Z,9.13
2019-02-17T21:00:50.068Z,10.97
2019-02-17T21:03:19.574Z,11.07
2019-02-17T21:05:49.948Z,11.47
2019-02-17T21:08:19.549Z,10.97
2019-02-17T21:10:48.867Z,11.13
2019-02-17T21:13:18.248Z,10.93
2019-02-17T21:15:47.627Z,9.80
2019-02-17T21:18:16.944Z,10.07
2019-02-17T21:20:46.307Z,9.57
2019-02-17T21:23:15.650Z,9.33
2019-02-17T21:25:44.972Z,9.57
2019-02-17T21:28:14.871Z,9.30
2019-02-17T21:30:44.211Z,9.93
2019-02-17T21:33:14.172Z,9.03
2019-02-17T21:35:43.512Z,9.50
2019-02-17T21:38:12.845Z,8.47
2019-02-17T21:40:42.128Z,9.47
2019-02-17T21:43:11.507Z,9.27
2019-02-17T21:45:40.808Z,9.80
2019-02-17T21:48:10.181Z,9.53
2019-02-17T21:50:41.622Z,9.00
2019-02-17T21:53:20.335Z,9.03
2019-02-17T21:55:40.386Z,8.80
2019-02-17T21:58:09.671Z,10.40
2019-02-17T22:00:38.995Z,9.47
2019-02-17T22:03:08.403Z,9.33
2019-02-17T22:05:37.783Z,9.70
2019-02-17T22:08:07.277Z,9.03
2019-02-17T22:10:36.701Z,9.60
2019-02-17T22:13:06.082Z,9.33
2019-02-17T22:15:35.775Z,9.13
2019-02-17T22:18:05.116Z,9.33
2019-02-17T22:20:34.512Z,9.27
2019-02-17T22:23:03.928Z,9.17
2019-02-17T22:25:33.325Z,9.13
2019-02-17T22:28:02.749Z,8.93
2019-02-17T22:30:32.111Z,9.20
2019-02-17T22:33:01.591Z,8.27
2019-02-17T22:35:30.945Z,9.23
2019-02-17T22:38:00.297Z,8.57
2019-02-17T22:40:30.053Z,9.17
2019-02-17T22:42:59.413Z,9.90
2019-02-17T22:45:28.700Z,9.60
2019-02-17T22:47:58.044Z,9.53
2019-02-17T22:50:27.828Z,9.27
2019-02-17T22:52:57.860Z,9.30
2019-02-17T22:55:28.226Z,10.10
2019-02-17T22:57:59.761Z,9.60
2019-02-17T23:00:43.370Z,10.07
2019-02-17T23:03:14.383Z,10.82
2019-02-17T23:05:43.785Z,10.20
2019-02-17T23:08:13.888Z,10.17
2019-02-17T23:10:43.335Z,11.20
2019-02-17T23:13:12.698Z,10.20
2019-02-17T23:15:42.032Z,11.07
2019-02-17T23:18:11.407Z,10.70
2019-02-17T23:20:40.791Z,10.33
2019-02-17T23:23:10.112Z,9.77
2019-02-17T23:25:39.397Z,11.17
2019-02-17T23:28:08.749Z,10.63
2019-02-17T23:30:38.169Z,10.17
2019-02-17T23:33:07.528Z,9.83
2019-02-17T23:35:36.842Z,9.93
2019-02-17T23:38:07.168Z,10.00
2019-02-17T23:40:36.531Z,9.37
2019-02-17T23:43:05.820Z,10.17
2019-02-17T23:45:35.149Z,9.30
2019-02-17T23:48:04.481Z,9.30
2019-02-17T23:50:33.846Z,8.90
2019-02-17T23:53:03.773Z,9.73
2019-02-17T23:55:33.115Z,9.17
2019-02-17T23:58:02.432Z,9.53
